createdAt,value
2019-01-16T00:00:01.775Z,9.40
2019-01-16T00:03:05.886Z,9.83
2019-01-16T00:06:15.297Z,10.00
2019-01-16T00:09:16.007Z,8.67
2019-01-16T00:12:25.435Z,10.00
2019-01-16T00:15:27.914Z,8.33
2019-01-16T00:18:37.285Z,9.30
2019-01-16T00:21:45.516Z,8.87
2019-01-16T00:24:54.938Z,8.70
2019-01-16T00:27:57.123Z,8.23
2019-01-16T00:31:06.532Z,9.23
2019-01-16T00:34:08.642Z,8.63
2019-01-16T00:37:18.049Z,8.67
2019-01-16T00:40:19.954Z,8.80
2019-01-16T00:43:29.350Z,9.00
2019-01-16T00:46:29.747Z,8.90
2019-01-16T00:49:39.129Z,9.10
2019-01-16T00:52:41.616Z,9.40
2019-01-16T00:55:51.053Z,9.40
2019-01-16T00:58:53.525Z,10.77
2019-01-16T01:02:02.970Z,8.40
2019-01-16T01:05:01.246Z,8.27
2019-01-16T01:08:10.630Z,10.50
2019-01-16T01:11:13.118Z,9.97
2019-01-16T01:14:22.500Z,9.83
2019-01-16T01:17:24.602Z,9.10
2019-01-16T01:20:33.987Z,9.90
2019-01-16T01:23:31.801Z,8.80
2019-01-16T01:26:41.273Z,9.80
2019-01-16T01:29:49.048Z,8.57
2019-01-16T01:32:58.451Z,9.20
2019-01-16T01:35:50.570Z,9.63
2019-01-16T01:38:59.989Z,9.53
2019-01-16T01:42:02.134Z,8.70
2019-01-16T01:45:11.529Z,8.27
2019-01-16T01:48:13.808Z,8.63
2019-01-16T01:51:23.214Z,9.03
2019-01-16T01:54:31.249Z,9.10
2019-01-16T01:57:40.639Z,9.10
2019-01-16T02:00:42.746Z,8.37
2019-01-16T02:03:52.163Z,8.70
2019-01-16T02:06:51.517Z,9.60
2019-01-16T02:09:47.756Z,8.13
2019-01-16T02:13:04.258Z,8.77
2019-01-16T02:15:52.490Z,7.50
2019-01-16T02:19:01.882Z,7.83
2019-01-16T02:22:03.990Z,8.07
2019-01-16T02:25:13.393Z,7.97
2019-01-16T02:28:17.914Z,9.10
2019-01-16T02:31:27.350Z,8.27
2019-01-16T02:34:27.888Z,8.37
2019-01-16T02:37:37.282Z,8.23
2019-01-16T02:40:39.412Z,7.63
2019-01-16T02:43:48.808Z,9.17
2019-01-16T02:46:49.268Z,7.70
2019-01-16T02:49:50.078Z,8.57
2019-01-16T02:52:59.475Z,10.03
2019-01-16T02:56:04.278Z,9.30
2019-01-16T02:59:13.699Z,9.17
2019-01-16T03:02:15.851Z,8.30
2019-01-16T03:05:19.869Z,10.00
2019-01-16T03:08:25.262Z,9.90
2019-01-16T03:11:27.384Z,9.97
2019-01-16T03:14:29.758Z,9.40
2019-01-16T03:17:31.630Z,10.87
2019-01-16T03:20:34.104Z,8.77
2019-01-16T03:23:43.481Z,8.83
2019-01-16T03:26:33.726Z,9.17
2019-01-16T03:29:43.126Z,8.70
2019-01-16T03:32:45.229Z,7.93
2019-01-16T03:36:00.407Z,9.13
2019-01-16T03:39:02.576Z,8.00
2019-01-16T03:42:01.567Z,8.17
2019-01-16T03:45:11.063Z,7.67
2019-01-16T03:48:16.146Z,9.17
2019-01-16T03:51:17.961Z,8.63
2019-01-16T03:54:27.348Z,7.47
2019-01-16T03:57:29.560Z,7.97
2019-01-16T04:00:38.987Z,7.43
2019-01-16T04:03:42.934Z,6.30
2019-01-16T04:06:52.337Z,7.70
2019-01-16T04:09:45.454Z,7.47
2019-01-16T04:12:47.706Z,7.20
2019-01-16T04:15:43.952Z,6.60
2019-01-16T04:18:46.376Z,7.10
2019-01-16T04:21:55.821Z,7.30
2019-01-16T04:25:00.780Z,7.60
2019-01-16T04:28:03.043Z,7.13
2019-01-16T04:31:12.419Z,6.93
2019-01-16T04:34:14.545Z,6.90
2019-01-16T04:37:23.930Z,7.13
2019-01-16T04:40:27.763Z,7.73
2019-01-16T04:43:37.158Z,5.87
2019-01-16T04:46:39.182Z,6.30
2019-01-16T04:49:48.569Z,6.57
2019-01-16T04:52:54.827Z,7.10
2019-01-16T04:56:04.218Z,6.93
2019-01-16T04:59:12.557Z,6.00
2019-01-16T05:02:21.996Z,6.43
2019-01-16T05:05:25.044Z,7.27
2019-01-16T05:08:34.491Z,6.80
2019-01-16T05:11:36.784Z,6.27
2019-01-16T05:14:45.034Z,6.20
2019-01-16T05:17:49.925Z,6.93
2019-01-16T05:20:52.076Z,7.03
2019-01-16T05:23:54.421Z,7.47
2019-01-16T05:27:03.807Z,7.23
2019-01-16T05:30:13.247Z,6.20
2019-01-16T05:33:09.450Z,7.90
2019-01-16T05:39:41.742Z,8.83
2019-01-16T05:42:41.959Z,8.63
2019-01-16T05:45:43.899Z,8.90
2019-01-16T05:48:53.306Z,7.47
2019-01-16T05:51:55.218Z,7.20
2019-01-16T05:55:02.859Z,8.30
2019-01-16T05:58:12.261Z,7.80
2019-01-16T06:01:14.260Z,7.63
2019-01-16T06:04:15.416Z,7.50
2019-01-16T06:07:24.815Z,6.90
2019-01-16T06:10:21.273Z,5.40
2019-01-16T06:13:23.321Z,5.53
2019-01-16T06:16:20.282Z,6.13
2019-01-16T06:19:29.694Z,7.33
2019-01-16T06:22:30.411Z,6.17
2019-01-16T06:25:37.575Z,7.30
2019-01-16T06:28:46.965Z,7.70
2019-01-16T06:31:49.096Z,7.50
2019-01-16T06:34:58.532Z,7.70
2019-01-16T06:38:06.718Z,6.83
2019-01-16T06:41:16.146Z,7.90
2019-01-16T06:44:24.259Z,6.77
2019-01-16T06:47:26.605Z,5.73
2019-01-16T06:50:36.045Z,6.37
2019-01-16T06:53:38.171Z,6.90
2019-01-16T06:56:40.356Z,7.23
2019-01-16T06:59:49.787Z,6.53
2019-01-16T07:02:51.833Z,7.27
2019-01-16T07:06:01.250Z,6.70
2019-01-16T07:09:01.723Z,6.90
2019-01-16T07:11:56.079Z,6.77
2019-01-16T07:14:58.121Z,7.10
2019-01-16T07:18:00.056Z,6.37
2019-01-16T07:21:03.612Z,6.90
2019-01-16T07:24:05.951Z,6.93
2019-01-16T07:27:07.975Z,7.10
2019-01-16T07:30:17.305Z,6.33
2019-01-16T07:33:19.446Z,7.10
2019-01-16T07:36:28.866Z,6.40
2019-01-16T07:39:21.135Z,5.80
2019-01-16T07:42:24.116Z,8.20
2019-01-16T07:45:54.111Z,8.10
2019-01-16T07:48:56.380Z,11.50
2019-01-16T07:52:05.786Z,12.00
2019-01-16T07:55:07.871Z,12.30
2019-01-16T07:58:18.292Z,13.37
2019-01-16T08:01:20.150Z,9.70
2019-01-16T08:04:29.572Z,10.80
2019-01-16T08:07:31.689Z,9.83
2019-01-16T08:10:41.107Z,9.17
2019-01-16T08:13:41.586Z,8.63
2019-01-16T08:16:44.031Z,7.77
2019-01-16T08:19:46.350Z,8.63
2019-01-16T08:22:55.768Z,6.00
2019-01-16T08:26:00.934Z,6.30
2019-01-16T08:29:01.424Z,6.53
2019-01-16T08:32:10.949Z,6.20
2019-01-16T08:35:11.439Z,6.20
2019-01-16T08:38:21.357Z,4.47
2019-01-16T08:41:23.554Z,6.13
2019-01-16T08:44:25.722Z,4.57
2019-01-16T08:47:35.245Z,4.57
2019-01-16T08:50:38.753Z,4.30
2019-01-16T08:53:48.257Z,4.97
2019-01-16T08:56:51.500Z,4.50
2019-01-16T08:59:58.386Z,5.87
2019-01-16T09:03:02.001Z,4.97
2019-01-16T09:06:11.454Z,4.70
2019-01-16T09:09:13.212Z,4.40
2019-01-16T09:12:22.672Z,4.67
2019-01-16T09:15:25.328Z,4.50
2019-01-16T09:18:34.853Z,4.13
2019-01-16T09:21:40.219Z,3.70
2019-01-16T09:24:49.738Z,4.00
2019-01-16T09:27:52.959Z,19.57
2019-01-16T09:31:02.389Z,4.73
2019-01-16T09:34:05.030Z,4.30
2019-01-16T09:37:14.448Z,3.30
2019-01-16T09:40:22.528Z,4.20
2019-01-16T09:43:32.000Z,3.00
2019-01-16T09:46:30.149Z,3.00
2019-01-16T09:49:39.593Z,3.20
2019-01-16T09:52:49.117Z,2.70
2019-01-16T09:56:00.162Z,2.60
2019-01-16T09:59:02.270Z,3.27
2019-01-16T10:02:11.712Z,3.10
2019-01-16T10:05:14.066Z,2.63
2019-01-16T10:08:26.462Z,2.40
2019-01-16T10:11:28.884Z,3.40
2019-01-16T10:14:38.251Z,3.27
2019-01-16T10:17:38.670Z,2.63
2019-01-16T10:20:55.405Z,3.23
2019-01-16T10:24:10.838Z,2.93
2019-01-16T10:27:20.256Z,2.87
2019-01-16T10:30:25.074Z,3.63
2019-01-16T10:33:34.658Z,3.17
2019-01-16T10:36:37.056Z,2.77
2019-01-16T10:39:46.476Z,3.27
2019-01-16T10:42:48.812Z,3.33
2019-01-16T10:45:58.278Z,2.50
2019-01-16T10:48:57.048Z,3.40
2019-01-16T10:52:06.478Z,2.63
2019-01-16T10:55:11.216Z,2.83
2019-01-16T10:58:20.708Z,3.20
2019-01-16T11:01:16.924Z,2.97
2019-01-16T11:04:14.770Z,3.07
2019-01-16T11:07:20.224Z,2.83
2019-01-16T11:10:31.272Z,2.70
2019-01-16T11:13:29.211Z,3.17
2019-01-16T11:16:24.533Z,2.40
2019-01-16T11:19:25.023Z,2.63
2019-01-16T11:22:34.431Z,2.20
2019-01-16T11:25:27.822Z,2.63
2019-01-16T11:28:37.256Z,1.87
2019-01-16T11:31:39.566Z,2.10
2019-01-16T11:34:48.990Z,1.67
2019-01-16T11:37:57.246Z,1.73
2019-01-16T11:44:31.340Z,1.73
2019-01-16T11:47:23.561Z,2.10
2019-01-16T11:50:15.281Z,1.70
2019-01-16T11:53:24.780Z,1.63
2019-01-16T11:56:20.746Z,1.90
2019-01-16T11:59:30.154Z,1.50
2019-01-16T12:02:38.701Z,20.10
2019-01-16T12:05:54.783Z,1.67
2019-01-16T12:09:02.783Z,1.30
2019-01-16T12:12:13.818Z,2.10
2019-01-16T12:15:16.311Z,2.57
2019-01-16T12:18:24.489Z,1.90
2019-01-16T12:21:26.792Z,2.43
2019-01-16T12:24:36.157Z,2.03
2019-01-16T12:27:34.459Z,2.40
2019-01-16T12:30:44.427Z,1.37
2019-01-16T12:33:46.348Z,2.10
2019-01-16T12:36:55.731Z,2.43
2019-01-16T12:39:57.728Z,1.97
2019-01-16T12:43:07.123Z,2.00
2019-01-16T12:46:07.623Z,1.70
2019-01-16T12:49:17.147Z,1.70
2019-01-16T12:52:08.599Z,1.60
2019-01-16T12:55:08.762Z,1.60
2019-01-16T12:58:13.382Z,1.80
2019-01-16T13:01:20.195Z,1.90
2019-01-16T13:04:22.388Z,1.40
2019-01-16T13:07:31.810Z,1.93
2019-01-16T13:10:33.601Z,7.57
2019-01-16T13:13:42.970Z,3.00
2019-01-16T13:16:45.053Z,2.40
2019-01-16T13:19:47.033Z,2.40
2019-01-16T13:22:56.475Z,2.20
2019-01-16T13:25:48.747Z,2.00
2019-01-16T13:28:58.130Z,2.60
2019-01-16T13:32:00.465Z,1.70
2019-01-16T13:35:09.883Z,2.07
2019-01-16T13:38:12.149Z,1.33
2019-01-16T13:41:14.666Z,1.60
2019-01-16T13:44:24.047Z,2.00
2019-01-16T13:47:26.231Z,1.67
2019-01-16T13:50:36.351Z,1.40
2019-01-16T13:53:35.127Z,1.40
2019-01-16T13:56:44.562Z,1.73
2019-01-16T13:59:52.681Z,2.10
2019-01-16T14:03:03.716Z,1.50
2019-01-16T14:06:05.606Z,1.93
2019-01-16T14:09:14.995Z,2.33
2019-01-16T14:12:16.858Z,1.67
2019-01-16T14:15:28.537Z,2.03
2019-01-16T14:18:22.509Z,1.90
2019-01-16T14:21:24.435Z,2.27
2019-01-16T14:27:46.524Z,2.30
2019-01-16T14:30:48.917Z,2.50
2019-01-16T14:34:06.815Z,2.10
2019-01-16T14:37:22.650Z,1.60
2019-01-16T14:40:30.453Z,2.20
2019-01-16T14:43:21.192Z,1.97
2019-01-16T14:46:21.304Z,2.60
2019-01-16T14:49:23.510Z,2.30
2019-01-16T14:52:33.169Z,2.10
2019-01-16T14:55:31.245Z,1.90
2019-01-16T14:58:33.439Z,2.03
2019-01-16T15:01:44.598Z,1.87
2019-01-16T15:04:48.317Z,2.23
2019-01-16T15:07:59.478Z,2.50
2019-01-16T15:10:56.310Z,2.37
2019-01-16T15:14:05.740Z,2.50
2019-01-16T15:17:06.015Z,2.90
2019-01-16T15:20:01.397Z,2.00
2019-01-16T15:22:54.064Z,6.27
2019-01-16T15:26:08.335Z,3.00
2019-01-16T15:29:11.948Z,3.13
2019-01-16T15:32:21.399Z,2.77
2019-01-16T15:35:17.235Z,2.70
2019-01-16T15:38:26.647Z,3.13
2019-01-16T15:41:28.771Z,2.93
2019-01-16T15:44:38.185Z,2.67
2019-01-16T15:47:40.375Z,2.37
2019-01-16T15:50:49.834Z,2.13
2019-01-16T15:53:51.837Z,2.63
2019-01-16T15:57:01.240Z,3.20
2019-01-16T16:00:03.614Z,3.30
2019-01-16T16:03:13.040Z,3.57
2019-01-16T16:06:15.188Z,3.50
2019-01-16T16:09:46.256Z,3.03
2019-01-16T16:12:38.582Z,4.20
2019-01-16T16:16:03.495Z,5.57
2019-01-16T16:19:12.082Z,6.30
2019-01-16T16:22:20.816Z,7.70
2019-01-16T16:25:14.017Z,7.57
2019-01-16T16:31:24.190Z,8.23
2019-01-16T16:34:18.864Z,8.10
2019-01-16T16:37:20.691Z,7.37
2019-01-16T16:40:30.528Z,7.50
2019-01-16T16:43:30.001Z,9.63
2019-01-16T16:46:32.192Z,9.23
2019-01-16T16:49:44.075Z,8.90
2019-01-16T16:52:46.340Z,8.50
2019-01-16T16:55:55.836Z,8.00
2019-01-16T16:58:57.704Z,7.43
2019-01-16T17:01:51.626Z,6.70
2019-01-16T17:05:01.024Z,7.40
2019-01-16T17:08:07.450Z,7.13
2019-01-16T17:11:16.855Z,7.53
2019-01-16T17:14:18.596Z,7.90
2019-01-16T17:17:28.039Z,7.77
2019-01-16T17:20:30.411Z,8.43
2019-01-16T17:23:39.874Z,7.97
2019-01-16T17:26:41.896Z,8.63
2019-01-16T17:29:51.283Z,9.07
2019-01-16T17:32:56.244Z,8.80
2019-01-16T17:36:05.774Z,8.40
2019-01-16T17:39:07.886Z,7.90
2019-01-16T17:42:18.930Z,8.27
2019-01-16T17:45:20.748Z,9.70
2019-01-16T17:48:30.238Z,11.13
2019-01-16T17:51:32.212Z,10.27
2019-01-16T17:54:41.621Z,11.40
2019-01-16T17:57:43.874Z,10.17
2019-01-16T18:00:53.268Z,11.03
2019-01-16T18:03:53.560Z,11.10
2019-01-16T18:07:02.955Z,11.00
2019-01-16T18:10:03.351Z,12.70
2019-01-16T18:13:12.866Z,14.57
2019-01-16T18:16:19.286Z,18.03
2019-01-16T18:19:28.775Z,16.47
2019-01-16T18:22:33.308Z,15.40
2019-01-16T18:25:42.757Z,14.60
2019-01-16T18:28:44.540Z,15.77
2019-01-16T18:31:53.927Z,17.67
2019-01-16T18:34:48.224Z,17.80
2019-01-16T18:37:57.632Z,20.80
2019-01-16T18:40:59.399Z,20.03
2019-01-16T18:44:08.805Z,20.20
2019-01-16T18:47:10.895Z,19.40
2019-01-16T18:50:20.298Z,18.30
2019-01-16T18:53:21.766Z,19.50
2019-01-16T18:56:31.224Z,19.27
2019-01-16T18:59:33.163Z,20.43
2019-01-16T19:05:48.011Z,20.43
2019-01-16T19:08:57.480Z,21.17
2019-01-16T19:11:59.693Z,20.60
2019-01-16T19:15:09.188Z,19.27
2019-01-16T19:18:13.526Z,22.80
2019-01-16T19:21:23.038Z,21.13
2019-01-16T19:24:15.571Z,19.93
2019-01-16T19:27:17.988Z,18.10
2019-01-16T19:30:15.199Z,16.63
2019-01-16T19:33:24.711Z,16.90
2019-01-16T19:36:25.100Z,17.30
2019-01-16T19:39:34.505Z,17.97
2019-01-16T19:42:39.837Z,15.90
2019-01-16T19:45:49.265Z,15.57
2019-01-16T19:48:45.828Z,15.27
2019-01-16T19:51:55.251Z,14.87
2019-01-16T19:54:55.616Z,13.00
2019-01-16T19:58:05.004Z,11.90
2019-01-16T20:01:09.432Z,11.77
2019-01-16T20:04:18.835Z,13.13
2019-01-16T20:07:21.193Z,12.53
2019-01-16T20:13:33.255Z,12.23
2019-01-16T20:16:36.750Z,11.30
2019-01-16T20:19:48.484Z,10.63
2019-01-16T20:22:56.863Z,10.43
2019-01-16T20:26:06.342Z,9.57
2019-01-16T20:29:02.060Z,9.30
2019-01-16T20:32:11.485Z,9.00
2019-01-16T20:35:13.618Z,10.20
2019-01-16T20:38:23.033Z,8.93
2019-01-16T20:41:24.650Z,7.80
2019-01-16T20:44:34.019Z,8.17
2019-01-16T20:47:28.730Z,7.37
2019-01-16T20:50:38.104Z,6.90
2019-01-16T20:53:33.882Z,7.43
2019-01-16T20:56:43.303Z,8.07
2019-01-16T20:59:48.556Z,7.30
2019-01-16T21:02:50.659Z,5.93
2019-01-16T21:05:48.306Z,5.50
2019-01-16T21:08:50.616Z,5.37
2019-01-16T21:12:00.005Z,5.00
2019-01-16T21:14:59.159Z,5.20
2019-01-16T21:18:08.572Z,4.60
2019-01-16T21:21:11.951Z,4.60
2019-01-16T21:24:09.699Z,3.83
2019-01-16T21:27:17.773Z,4.37
2019-01-16T21:30:18.166Z,3.77
2019-01-16T21:33:20.306Z,3.67
2019-01-16T21:36:29.698Z,3.73
2019-01-16T21:39:31.691Z,4.17
2019-01-16T21:42:41.090Z,4.00
2019-01-16T21:45:43.429Z,4.40
2019-01-16T21:48:52.829Z,3.97
2019-01-16T21:51:51.433Z,3.97
2019-01-16T21:55:00.915Z,3.97
2019-01-16T21:58:04.797Z,3.37
2019-01-16T22:01:14.171Z,3.77
2019-01-16T22:04:06.809Z,4.00
2019-01-16T22:07:16.212Z,3.87
2019-01-16T22:10:18.035Z,4.20
2019-01-16T22:13:27.449Z,5.03
2019-01-16T22:16:35.838Z,5.27
2019-01-16T22:19:45.352Z,5.20
2019-01-16T22:22:47.427Z,5.83
2019-01-16T22:25:56.875Z,5.23
2019-01-16T22:28:53.569Z,4.40
2019-01-16T22:32:02.943Z,4.93
2019-01-16T22:35:05.189Z,4.33
2019-01-16T22:38:14.693Z,4.10
2019-01-16T22:41:16.853Z,4.00
2019-01-16T22:44:26.281Z,3.33
2019-01-16T22:47:27.881Z,3.77
2019-01-16T22:50:37.329Z,3.70
2019-01-16T22:53:43.617Z,3.43
2019-01-16T22:56:53.002Z,3.73
2019-01-16T22:59:54.665Z,3.97
2019-01-16T23:02:44.957Z,3.37
2019-01-16T23:05:46.963Z,3.13
2019-01-16T23:08:56.319Z,3.03
2019-01-16T23:12:01.598Z,2.90
2019-01-16T23:15:10.952Z,3.00
2019-01-16T23:18:11.403Z,3.63
2019-01-16T23:21:20.798Z,3.37
2019-01-16T23:24:16.288Z,3.23
2019-01-16T23:27:25.720Z,3.60
2019-01-16T23:30:32.117Z,3.10
2019-01-16T23:33:29.680Z,3.70
2019-01-16T23:36:32.251Z,3.10
2019-01-16T23:43:06.611Z,2.77
2019-01-16T23:46:08.899Z,3.07
2019-01-16T23:49:18.339Z,2.77
2019-01-16T23:52:14.042Z,2.57
2019-01-16T23:55:26.675Z,2.27
2019-01-16T23:58:28.585Z,2.43
